sensor_id;sensor_type;location;lat;lon;timestamp;P1;durP1;ratioP1;P2;durP2;ratioP2
20711;SDS011;10517;50.742;4.224;2022-11-11T00:02:02;14.17;;;5.17;;
20711;SDS011;10517;50.742;4.224;2022-11-11T00:04:27;12.17;;;5.80;;
20711;SDS011;10517;50.742;4.224;2022-11-11T00:06:53;12.33;;;5.53;;
20711;SDS011;10517;50.742;4.224;2022-11-11T00:09:19;11.53;;;5.70;;
20711;SDS011;10517;50.742;4.224;2022-11-11T00:11:44;15.77;;;7.20;;
20711;SDS011;10517;50.742;4.224;2022-11-11T00:14:10;11.93;;;5.83;;
20711;SDS011;10517;50.742;4.224;2022-11-11T00:16:35;13.20;;;6.17;;
20711;SDS011;10517;50.742;4.224;2022-11-11T00:19:19;18.50;;;6.90;;
20711;SDS011;10517;50.742;4.224;2022-11-11T00:22:03;12.70;;;6.07;;
20711;SDS011;10517;50.742;4.224;2022-11-11T00:24:47;13.93;;;6.20;;
20711;SDS011;10517;50.742;4.224;2022-11-11T00:27:31;13.77;;;6.17;;
20711;SDS011;10517;50.742;4.224;2022-11-11T00:29:57;10.30;;;5.57;;
20711;SDS011;10517;50.742;4.224;2022-11-11T00:32:22;16.30;;;6.70;;
20711;SDS011;10517;50.742;4.224;2022-11-11T00:34:48;9.03;;;4.87;;
20711;SDS011;10517;50.742;4.224;2022-11-11T00:37:33;12.97;;;5.40;;
20711;SDS011;10517;50.742;4.224;2022-11-11T00:39:59;11.87;;;4.00;;
20711;SDS011;10517;50.742;4.224;2022-11-11T00:42:25;12.10;;;3.70;;
20711;SDS011;10517;50.742;4.224;2022-11-11T00:44:51;9.70;;;4.30;;
20711;SDS011;10517;50.742;4.224;2022-11-11T00:47:17;12.73;;;3.63;;
20711;SDS011;10517;50.742;4.224;2022-11-11T00:50:02;14.47;;;4.30;;
20711;SDS011;10517;50.742;4.224;2022-11-11T00:52:56;6.17;;;3.13;;
20711;SDS011;10517;50.742;4.224;2022-11-11T00:55:22;7.93;;;3.50;;
20711;SDS011;10517;50.742;4.224;2022-11-11T00:57:47;7.23;;;3.10;;
20711;SDS011;10517;50.742;4.224;2022-11-11T01:00:13;13.80;;;3.43;;
20711;SDS011;10517;50.742;4.224;2022-11-11T01:02:39;6.03;;;2.80;;
20711;SDS011;10517;50.742;4.224;2022-11-11T01:05:05;5.30;;;3.10;;
20711;SDS011;10517;50.742;4.224;2022-11-11T01:07:31;10.37;;;3.63;;
20711;SDS011;10517;50.742;4.224;2022-11-11T01:09:56;8.13;;;3.90;;
20711;SDS011;10517;50.742;4.224;2022-11-11T01:12:22;7.17;;;5.07;;
20711;SDS011;10517;50.742;4.224;2022-11-11T01:14:48;6.37;;;3.97;;
20711;SDS011;10517;50.742;4.224;2022-11-11T01:17:13;8.17;;;3.90;;
20711;SDS011;10517;50.742;4.224;2022-11-11T01:19:39;10.07;;;4.23;;
20711;SDS011;10517;50.742;4.224;2022-11-11T01:22:04;9.20;;;4.33;;
20711;SDS011;10517;50.742;4.224;2022-11-11T01:24:30;10.03;;;4.13;;
20711;SDS011;10517;50.742;4.224;2022-11-11T01:26:55;12.50;;;3.90;;
20711;SDS011;10517;50.742;4.224;2022-11-11T01:29:21;11.53;;;4.00;;
20711;SDS011;10517;50.742;4.224;2022-11-11T01:31:47;7.73;;;4.03;;
20711;SDS011;10517;50.742;4.224;2022-11-11T01:34:12;10.73;;;5.00;;
20711;SDS011;10517;50.742;4.224;2022-11-11T01:36:38;11.23;;;4.90;;
20711;SDS011;10517;50.742;4.224;2022-11-11T01:39:03;11.87;;;4.90;;
20711;SDS011;10517;50.742;4.224;2022-11-11T01:41:30;11.20;;;4.57;;
20711;SDS011;10517;50.742;4.224;2022-11-11T01:54:48;14.17;;;6.43;;
20711;SDS011;10517;50.742;4.224;2022-11-11T02:00:20;18.27;;;6.90;;
20711;SDS011;10517;50.742;4.224;2022-11-11T02:05:20;11.13;;;5.87;;
20711;SDS011;10517;50.742;4.224;2022-11-11T02:08:25;13.63;;;6.63;;
20711;SDS011;10517;50.742;4.224;2022-11-11T02:11:08;12.57;;;5.53;;
20711;SDS011;10517;50.742;4.224;2022-11-11T02:14:00;10.77;;;5.97;;
20711;SDS011;10517;50.742;4.224;2022-11-11T02:16:45;11.60;;;5.90;;
20711;SDS011;10517;50.742;4.224;2022-11-11T02:19:11;13.73;;;5.53;;
20711;SDS011;10517;50.742;4.224;2022-11-11T02:21:41;7.70;;;4.90;;
20711;SDS011;10517;50.742;4.224;2022-11-11T02:24:16;10.50;;;4.53;;
20711;SDS011;10517;50.742;4.224;2022-11-11T02:26:44;9.10;;;4.73;;
20711;SDS011;10517;50.742;4.224;2022-11-11T02:29:13;11.73;;;5.17;;
20711;SDS011;10517;50.742;4.224;2022-11-11T02:31:40;9.57;;;4.70;;
20711;SDS011;10517;50.742;4.224;2022-11-11T02:34:06;8.63;;;5.60;;
20711;SDS011;10517;50.742;4.224;2022-11-11T02:36:32;6.77;;;4.10;;
20711;SDS011;10517;50.742;4.224;2022-11-11T02:38:58;11.20;;;4.17;;
20711;SDS011;10517;50.742;4.224;2022-11-11T02:41:24;13.97;;;4.47;;
20711;SDS011;10517;50.742;4.224;2022-11-11T02:44:08;8.20;;;4.27;;
20711;SDS011;10517;50.742;4.224;2022-11-11T02:46:34;8.93;;;4.50;;
20711;SDS011;10517;50.742;4.224;2022-11-11T02:48:59;10.17;;;5.10;;
20711;SDS011;10517;50.742;4.224;2022-11-11T02:51:25;8.40;;;4.50;;
20711;SDS011;10517;50.742;4.224;2022-11-11T02:53:50;6.00;;;4.20;;
20711;SDS011;10517;50.742;4.224;2022-11-11T02:56:16;6.13;;;4.07;;
20711;SDS011;10517;50.742;4.224;2022-11-11T02:59:01;6.17;;;3.70;;
20711;SDS011;10517;50.742;4.224;2022-11-11T03:01:27;14.10;;;4.37;;
20711;SDS011;10517;50.742;4.224;2022-11-11T03:03:52;9.57;;;4.03;;
20711;SDS011;10517;50.742;4.224;2022-11-11T03:06:18;8.70;;;3.57;;
20711;SDS011;10517;50.742;4.224;2022-11-11T03:08:43;10.13;;;4.10;;
20711;SDS011;10517;50.742;4.224;2022-11-11T03:11:09;7.03;;;4.13;;
20711;SDS011;10517;50.742;4.224;2022-11-11T03:13:35;14.00;;;4.90;;
20711;SDS011;10517;50.742;4.224;2022-11-11T03:16:00;8.57;;;4.43;;
20711;SDS011;10517;50.742;4.224;2022-11-11T03:18:26;10.33;;;3.90;;
20711;SDS011;10517;50.742;4.224;2022-11-11T03:20:51;7.03;;;4.43;;
20711;SDS011;10517;50.742;4.224;2022-11-11T03:23:29;5.17;;;3.03;;
20711;SDS011;10517;50.742;4.224;2022-11-11T03:25:54;8.63;;;3.70;;
20711;SDS011;10517;50.742;4.224;2022-11-11T03:28:20;10.30;;;3.67;;
20711;SDS011;10517;50.742;4.224;2022-11-11T03:30:46;8.80;;;4.57;;
20711;SDS011;10517;50.742;4.224;2022-11-11T03:33:13;10.43;;;5.00;;
20711;SDS011;10517;50.742;4.224;2022-11-11T03:35:40;6.87;;;3.33;;
20711;SDS011;10517;50.742;4.224;2022-11-11T03:38:07;11.10;;;3.67;;
20711;SDS011;10517;50.742;4.224;2022-11-11T03:40:56;9.90;;;4.40;;
20711;SDS011;10517;50.742;4.224;2022-11-11T03:43:23;6.67;;;3.30;;
20711;SDS011;10517;50.742;4.224;2022-11-11T03:45:57;5.03;;;3.57;;
20711;SDS011;10517;50.742;4.224;2022-11-11T03:48:24;7.47;;;3.47;;
20711;SDS011;10517;50.742;4.224;2022-11-11T03:50:51;5.17;;;3.27;;
20711;SDS011;10517;50.742;4.224;2022-11-11T03:53:18;6.63;;;3.37;;
20711;SDS011;10517;50.742;4.224;2022-11-11T03:55:44;10.17;;;3.50;;
20711;SDS011;10517;50.742;4.224;2022-11-11T03:58:10;6.77;;;3.50;;
20711;SDS011;10517;50.742;4.224;2022-11-11T04:00:36;6.00;;;3.30;;
20711;SDS011;10517;50.742;4.224;2022-11-11T04:03:03;9.73;;;4.20;;
20711;SDS011;10517;50.742;4.224;2022-11-11T04:05:57;6.07;;;3.40;;
20711;SDS011;10517;50.742;4.224;2022-11-11T04:08:42;9.07;;;3.27;;
20711;SDS011;10517;50.742;4.224;2022-11-11T04:11:31;4.83;;;3.37;;
20711;SDS011;10517;50.742;4.224;2022-11-11T04:14:03;7.63;;;3.83;;
20711;SDS011;10517;50.742;4.224;2022-11-11T04:16:50;6.33;;;3.27;;
20711;SDS011;10517;50.742;4.224;2022-11-11T04:19:16;4.07;;;2.97;;
20711;SDS011;10517;50.742;4.224;2022-11-11T04:22:00;5.57;;;3.47;;
20711;SDS011;10517;50.742;4.224;2022-11-11T04:24:26;7.53;;;3.43;;
20711;SDS011;10517;50.742;4.224;2022-11-11T04:27:11;10.27;;;3.60;;
20711;SDS011;10517;50.742;4.224;2022-11-11T04:29:38;10.20;;;3.60;;
20711;SDS011;10517;50.742;4.224;2022-11-11T04:32:05;5.03;;;3.30;;
20711;SDS011;10517;50.742;4.224;2022-11-11T04:34:52;6.73;;;3.27;;
20711;SDS011;10517;50.742;4.224;2022-11-11T04:37:18;7.07;;;3.37;;
20711;SDS011;10517;50.742;4.224;2022-11-11T04:39:45;9.17;;;4.23;;
20711;SDS011;10517;50.742;4.224;2022-11-11T04:42:30;5.63;;;3.33;;
20711;SDS011;10517;50.742;4.224;2022-11-11T04:44:57;5.00;;;3.30;;
20711;SDS011;10517;50.742;4.224;2022-11-11T04:47:55;10.30;;;3.87;;
20711;SDS011;10517;50.742;4.224;2022-11-11T04:50:22;4.53;;;3.37;;
20711;SDS011;10517;50.742;4.224;2022-11-11T04:52:49;5.33;;;3.43;;
20711;SDS011;10517;50.742;4.224;2022-11-11T04:55:15;5.10;;;3.17;;
20711;SDS011;10517;50.742;4.224;2022-11-11T04:58:00;8.63;;;3.57;;
20711;SDS011;10517;50.742;4.224;2022-11-11T05:00:25;7.00;;;3.30;;
20711;SDS011;10517;50.742;4.224;2022-11-11T05:02:55;9.57;;;3.53;;
20711;SDS011;10517;50.742;4.224;2022-11-11T05:05:39;7.60;;;3.30;;
20711;SDS011;10517;50.742;4.224;2022-11-11T05:08:33;7.53;;;3.20;;
20711;SDS011;10517;50.742;4.224;2022-11-11T05:11:19;5.97;;;3.23;;
20711;SDS011;10517;50.742;4.224;2022-11-11T05:13:46;7.23;;;3.47;;
20711;SDS011;10517;50.742;4.224;2022-11-11T05:16:32;5.73;;;3.13;;
20711;SDS011;10517;50.742;4.224;2022-11-11T05:19:19;7.40;;;3.17;;
20711;SDS011;10517;50.742;4.224;2022-11-11T05:24:35;8.47;;;3.23;;
20711;SDS011;10517;50.742;4.224;2022-11-11T05:27:19;4.67;;;3.00;;
20711;SDS011;10517;50.742;4.224;2022-11-11T05:29:47;4.30;;;3.10;;
20711;SDS011;10517;50.742;4.224;2022-11-11T05:32:16;6.93;;;3.07;;
20711;SDS011;10517;50.742;4.224;2022-11-11T05:34:43;10.20;;;3.37;;
20711;SDS011;10517;50.742;4.224;2022-11-11T05:37:09;6.17;;;2.80;;
20711;SDS011;10517;50.742;4.224;2022-11-11T05:39:35;4.87;;;2.83;;
20711;SDS011;10517;50.742;4.224;2022-11-11T05:42:00;7.77;;;3.53;;
20711;SDS011;10517;50.742;4.224;2022-11-11T05:44:26;5.60;;;3.13;;
20711;SDS011;10517;50.742;4.224;2022-11-11T05:46:51;8.57;;;3.57;;
20711;SDS011;10517;50.742;4.224;2022-11-11T05:49:17;9.57;;;3.37;;
20711;SDS011;10517;50.742;4.224;2022-11-11T05:51:43;8.30;;;3.20;;
20711;SDS011;10517;50.742;4.224;2022-11-11T05:54:10;7.07;;;3.13;;
20711;SDS011;10517;50.742;4.224;2022-11-11T05:56:36;5.33;;;3.30;;
20711;SDS011;10517;50.742;4.224;2022-11-11T05:59:02;4.00;;;3.23;;
20711;SDS011;10517;50.742;4.224;2022-11-11T06:01:28;4.20;;;3.57;;
20711;SDS011;10517;50.742;4.224;2022-11-11T06:03:53;3.37;;;3.00;;
20711;SDS011;10517;50.742;4.224;2022-11-11T06:06:19;5.37;;;3.27;;
20711;SDS011;10517;50.742;4.224;2022-11-11T06:08:45;7.40;;;3.60;;
20711;SDS011;10517;50.742;4.224;2022-11-11T06:11:10;5.70;;;3.20;;
20711;SDS011;10517;50.742;4.224;2022-11-11T06:13:36;6.27;;;4.37;;
20711;SDS011;10517;50.742;4.224;2022-11-11T06:16:02;6.07;;;3.30;;
20711;SDS011;10517;50.742;4.224;2022-11-11T06:18:28;8.30;;;4.13;;
20711;SDS011;10517;50.742;4.224;2022-11-11T06:20:57;4.93;;;3.27;;
20711;SDS011;10517;50.742;4.224;2022-11-11T06:23:23;8.33;;;3.80;;
20711;SDS011;10517;50.742;4.224;2022-11-11T06:25:50;5.57;;;3.70;;
20711;SDS011;10517;50.742;4.224;2022-11-11T06:28:35;7.13;;;3.50;;
20711;SDS011;10517;50.742;4.224;2022-11-11T06:31:01;8.87;;;4.27;;
20711;SDS011;10517;50.742;4.224;2022-11-11T06:33:26;4.17;;;3.37;;
20711;SDS011;10517;50.742;4.224;2022-11-11T06:35:52;10.43;;;4.10;;
20711;SDS011;10517;50.742;4.224;2022-11-11T06:38:18;7.03;;;4.13;;
20711;SDS011;10517;50.742;4.224;2022-11-11T06:40:44;6.97;;;3.70;;
20711;SDS011;10517;50.742;4.224;2022-11-11T06:43:10;8.37;;;3.90;;
20711;SDS011;10517;50.742;4.224;2022-11-11T06:45:36;6.20;;;4.47;;
20711;SDS011;10517;50.742;4.224;2022-11-11T06:48:02;7.87;;;4.57;;
20711;SDS011;10517;50.742;4.224;2022-11-11T06:50:29;7.70;;;4.33;;
20711;SDS011;10517;50.742;4.224;2022-11-11T06:53:02;12.40;;;5.13;;
20711;SDS011;10517;50.742;4.224;2022-11-11T06:55:32;13.67;;;4.60;;
20711;SDS011;10517;50.742;4.224;2022-11-11T06:58:08;11.30;;;5.10;;
20711;SDS011;10517;50.742;4.224;2022-11-11T07:00:40;7.90;;;4.73;;
20711;SDS011;10517;50.742;4.224;2022-11-11T07:03:06;7.23;;;4.43;;
20711;SDS011;10517;50.742;4.224;2022-11-11T07:05:33;9.80;;;5.70;;
20711;SDS011;10517;50.742;4.224;2022-11-11T07:08:03;11.03;;;5.00;;
20711;SDS011;10517;50.742;4.224;2022-11-11T07:10:30;12.98;;;6.72;;
20711;SDS011;10517;50.742;4.224;2022-11-11T07:12:56;9.43;;;5.93;;
20711;SDS011;10517;50.742;4.224;2022-11-11T07:15:22;12.70;;;6.00;;
20711;SDS011;10517;50.742;4.224;2022-11-11T07:17:48;13.30;;;4.83;;
20711;SDS011;10517;50.742;4.224;2022-11-11T07:20:13;13.47;;;5.60;;
20711;SDS011;10517;50.742;4.224;2022-11-11T07:22:39;11.53;;;4.80;;
20711;SDS011;10517;50.742;4.224;2022-11-11T07:25:05;16.13;;;6.40;;
20711;SDS011;10517;50.742;4.224;2022-11-11T07:27:31;10.23;;;5.40;;
20711;SDS011;10517;50.742;4.224;2022-11-11T07:30:00;8.60;;;4.93;;
20711;SDS011;10517;50.742;4.224;2022-11-11T07:32:25;8.27;;;4.77;;
20711;SDS011;10517;50.742;4.224;2022-11-11T07:34:51;12.57;;;5.00;;
20711;SDS011;10517;50.742;4.224;2022-11-11T07:37:17;10.40;;;4.90;;
20711;SDS011;10517;50.742;4.224;2022-11-11T07:39:43;8.57;;;4.50;;
20711;SDS011;10517;50.742;4.224;2022-11-11T07:42:09;14.97;;;5.03;;
20711;SDS011;10517;50.742;4.224;2022-11-11T07:44:34;10.10;;;5.07;;
20711;SDS011;10517;50.742;4.224;2022-11-11T07:47:00;9.23;;;4.90;;
20711;SDS011;10517;50.742;4.224;2022-11-11T07:49:25;8.13;;;4.73;;
20711;SDS011;10517;50.742;4.224;2022-11-11T07:51:51;8.20;;;4.57;;
20711;SDS011;10517;50.742;4.224;2022-11-11T07:54:17;7.57;;;4.73;;
20711;SDS011;10517;50.742;4.224;2022-11-11T07:56:42;13.67;;;5.43;;
20711;SDS011;10517;50.742;4.224;2022-11-11T07:59:08;10.13;;;4.63;;
20711;SDS011;10517;50.742;4.224;2022-11-11T08:01:33;10.03;;;4.07;;
20711;SDS011;10517;50.742;4.224;2022-11-11T08:03:59;8.63;;;4.37;;
20711;SDS011;10517;50.742;4.224;2022-11-11T08:06:24;8.23;;;4.50;;
20711;SDS011;10517;50.742;4.224;2022-11-11T08:08:50;11.00;;;4.60;;
20711;SDS011;10517;50.742;4.224;2022-11-11T08:11:16;12.30;;;4.40;;
20711;SDS011;10517;50.742;4.224;2022-11-11T08:14:01;7.43;;;3.83;;
20711;SDS011;10517;50.742;4.224;2022-11-11T08:16:27;14.23;;;4.77;;
20711;SDS011;10517;50.742;4.224;2022-11-11T08:18:53;7.13;;;3.97;;
20711;SDS011;10517;50.742;4.224;2022-11-11T08:21:18;12.33;;;3.97;;
20711;SDS011;10517;50.742;4.224;2022-11-11T08:23:44;8.40;;;4.53;;
20711;SDS011;10517;50.742;4.224;2022-11-11T08:26:09;10.43;;;4.30;;
20711;SDS011;10517;50.742;4.224;2022-11-11T08:28:35;8.70;;;4.13;;
20711;SDS011;10517;50.742;4.224;2022-11-11T08:31:01;9.33;;;3.63;;
20711;SDS011;10517;50.742;4.224;2022-11-11T08:33:27;5.53;;;3.57;;
20711;SDS011;10517;50.742;4.224;2022-11-11T08:35:53;7.23;;;3.97;;
20711;SDS011;10517;50.742;4.224;2022-11-11T08:38:23;6.63;;;4.07;;
20711;SDS011;10517;50.742;4.224;2022-11-11T08:40:49;8.83;;;4.03;;
20711;SDS011;10517;50.742;4.224;2022-11-11T08:43:15;8.03;;;4.67;;
20711;SDS011;10517;50.742;4.224;2022-11-11T08:45:41;5.83;;;3.70;;
20711;SDS011;10517;50.742;4.224;2022-11-11T08:48:08;7.53;;;3.80;;
20711;SDS011;10517;50.742;4.224;2022-11-11T08:50:37;8.70;;;4.37;;
20711;SDS011;10517;50.742;4.224;2022-11-11T08:53:04;9.30;;;4.87;;
20711;SDS011;10517;50.742;4.224;2022-11-11T08:55:32;11.37;;;4.53;;
20711;SDS011;10517;50.742;4.224;2022-11-11T08:57:58;9.10;;;3.70;;
20711;SDS011;10517;50.742;4.224;2022-11-11T09:00:25;12.57;;;5.07;;
20711;SDS011;10517;50.742;4.224;2022-11-11T09:02:51;7.47;;;4.30;;
20711;SDS011;10517;50.742;4.224;2022-11-11T09:05:17;9.23;;;3.93;;
20711;SDS011;10517;50.742;4.224;2022-11-11T09:07:43;6.90;;;4.23;;
20711;SDS011;10517;50.742;4.224;2022-11-11T09:10:09;8.03;;;3.50;;
20711;SDS011;10517;50.742;4.224;2022-11-11T09:12:34;6.63;;;3.57;;
20711;SDS011;10517;50.742;4.224;2022-11-11T09:15:00;9.37;;;4.40;;
20711;SDS011;10517;50.742;4.224;2022-11-11T09:17:26;5.20;;;3.50;;
20711;SDS011;10517;50.742;4.224;2022-11-11T09:19:52;5.80;;;3.27;;
20711;SDS011;10517;50.742;4.224;2022-11-11T09:22:18;7.93;;;4.23;;
20711;SDS011;10517;50.742;4.224;2022-11-11T09:24:43;11.33;;;4.43;;
20711;SDS011;10517;50.742;4.224;2022-11-11T09:27:09;7.10;;;3.37;;
20711;SDS011;10517;50.742;4.224;2022-11-11T09:29:35;6.13;;;3.10;;
20711;SDS011;10517;50.742;4.224;2022-11-11T09:32:01;5.77;;;3.37;;
20711;SDS011;10517;50.742;4.224;2022-11-11T09:34:27;7.67;;;3.47;;
20711;SDS011;10517;50.742;4.224;2022-11-11T09:36:52;4.60;;;3.10;;
20711;SDS011;10517;50.742;4.224;2022-11-11T09:39:18;8.10;;;4.07;;
20711;SDS011;10517;50.742;4.224;2022-11-11T09:45:05;4.67;;;2.20;;
20711;SDS011;10517;50.742;4.224;2022-11-11T09:47:20;5.78;;;2.75;;
20711;SDS011;10517;50.742;4.224;2022-11-11T09:55:48;11.80;;;3.20;;
20711;SDS011;10517;50.742;4.224;2022-11-11T10:00:53;6.60;;;2.70;;
20711;SDS011;10517;50.742;4.224;2022-11-11T10:03:24;4.80;;;2.15;;
20711;SDS011;10517;50.742;4.224;2022-11-11T10:05:53;5.68;;;2.80;;
20711;SDS011;10517;50.742;4.224;2022-11-11T10:08:34;4.22;;;2.35;;
20711;SDS011;10517;50.742;4.224;2022-11-11T10:11:04;4.13;;;2.55;;
20711;SDS011;10517;50.742;4.224;2022-11-11T10:14:03;6.18;;;2.42;;
20711;SDS011;10517;50.742;4.224;2022-11-11T10:21:49;3.63;;;1.83;;
20711;SDS011;10517;50.742;4.224;2022-11-11T10:24:17;4.85;;;2.08;;
20711;SDS011;10517;50.742;4.224;2022-11-11T10:26:58;2.25;;;1.83;;
20711;SDS011;10517;50.742;4.224;2022-11-11T10:29:29;3.33;;;1.48;;
20711;SDS011;10517;50.742;4.224;2022-11-11T10:34:59;2.50;;;1.88;;
20711;SDS011;10517;50.742;4.224;2022-11-11T10:37:39;1.92;;;1.45;;
20711;SDS011;10517;50.742;4.224;2022-11-11T10:40:09;2.28;;;1.52;;
20711;SDS011;10517;50.742;4.224;2022-11-11T10:42:39;5.35;;;2.15;;
20711;SDS011;10517;50.742;4.224;2022-11-11T10:45:11;2.28;;;1.45;;
20711;SDS011;10517;50.742;4.224;2022-11-11T10:50:20;3.53;;;1.52;;
20711;SDS011;10517;50.742;4.224;2022-11-11T10:55:45;2.80;;;1.70;;
20711;SDS011;10517;50.742;4.224;2022-11-11T10:58:39;3.00;;;1.80;;
20711;SDS011;10517;50.742;4.224;2022-11-11T11:01:11;4.07;;;1.80;;
20711;SDS011;10517;50.742;4.224;2022-11-11T11:03:41;1.92;;;1.25;;
20711;SDS011;10517;50.742;4.224;2022-11-11T11:06:19;1.45;;;1.25;;
20711;SDS011;10517;50.742;4.224;2022-11-11T11:09:00;3.80;;;1.50;;
20711;SDS011;10517;50.742;4.224;2022-11-11T11:11:39;2.72;;;1.60;;
20711;SDS011;10517;50.742;4.224;2022-11-11T11:14:12;2.55;;;1.42;;
20711;SDS011;10517;50.742;4.224;2022-11-11T11:16:51;1.88;;;1.10;;
20711;SDS011;10517;50.742;4.224;2022-11-11T11:19:23;1.70;;;1.30;;
20711;SDS011;10517;50.742;4.224;2022-11-11T11:21:56;2.92;;;1.38;;
20711;SDS011;10517;50.742;4.224;2022-11-11T11:24:31;5.68;;;1.67;;
20711;SDS011;10517;50.742;4.224;2022-11-11T11:26:59;2.63;;;1.40;;
20711;SDS011;10517;50.742;4.224;2022-11-11T11:29:33;1.90;;;1.33;;
20711;SDS011;10517;50.742;4.224;2022-11-11T11:32:12;2.78;;;1.88;;
20711;SDS011;10517;50.742;4.224;2022-11-11T11:34:44;2.75;;;1.40;;
20711;SDS011;10517;50.742;4.224;2022-11-11T11:37:11;1.67;;;1.15;;
20711;SDS011;10517;50.742;4.224;2022-11-11T11:39:38;2.53;;;1.08;;
20711;SDS011;10517;50.742;4.224;2022-11-11T11:42:04;3.05;;;1.40;;
20711;SDS011;10517;50.742;4.224;2022-11-11T11:44:32;5.38;;;1.70;;
20711;SDS011;10517;50.742;4.224;2022-11-11T11:50:07;2.83;;;1.45;;
20711;SDS011;10517;50.742;4.224;2022-11-11T11:53:03;2.15;;;1.42;;
20711;SDS011;10517;50.742;4.224;2022-11-11T11:55:31;3.38;;;1.88;;
20711;SDS011;10517;50.742;4.224;2022-11-11T11:59:03;5.13;;;1.40;;
20711;SDS011;10517;50.742;4.224;2022-11-11T12:14:44;2.75;;;1.23;;
20711;SDS011;10517;50.742;4.224;2022-11-11T12:17:26;3.20;;;1.77;;
20711;SDS011;10517;50.742;4.224;2022-11-11T12:20:17;6.28;;;1.58;;
20711;SDS011;10517;50.742;4.224;2022-11-11T12:25:38;3.10;;;1.40;;
20711;SDS011;10517;50.742;4.224;2022-11-11T12:36:19;3.75;;;1.45;;
20711;SDS011;10517;50.742;4.224;2022-11-11T12:39:13;3.22;;;1.55;;
20711;SDS011;10517;50.742;4.224;2022-11-11T12:41:55;3.83;;;1.73;;
20711;SDS011;10517;50.742;4.224;2022-11-11T12:44:25;4.43;;;1.83;;
20711;SDS011;10517;50.742;4.224;2022-11-11T13:00:47;5.20;;;1.83;;
20711;SDS011;10517;50.742;4.224;2022-11-11T13:11:57;3.63;;;1.58;;
20711;SDS011;10517;50.742;4.224;2022-11-11T13:17:43;4.57;;;1.50;;
20711;SDS011;10517;50.742;4.224;2022-11-11T13:23:12;3.80;;;2.25;;
20711;SDS011;10517;50.742;4.224;2022-11-11T13:25:38;2.85;;;1.60;;
20711;SDS011;10517;50.742;4.224;2022-11-11T13:33:43;4.38;;;1.92;;
20711;SDS011;10517;50.742;4.224;2022-11-11T13:36:13;4.53;;;1.92;;
20711;SDS011;10517;50.742;4.224;2022-11-11T13:38:49;3.45;;;2.10;;
20711;SDS011;10517;50.742;4.224;2022-11-11T13:41:34;3.20;;;1.85;;
20711;SDS011;10517;50.742;4.224;2022-11-11T13:44:06;3.72;;;2.30;;
20711;SDS011;10517;50.742;4.224;2022-11-11T13:46:40;1.90;;;1.40;;
20711;SDS011;10517;50.742;4.224;2022-11-11T13:49:20;2.53;;;1.80;;
20711;SDS011;10517;50.742;4.224;2022-11-11T13:51:57;3.63;;;2.00;;
20711;SDS011;10517;50.742;4.224;2022-11-11T13:54:33;3.17;;;1.80;;
20711;SDS011;10517;50.742;4.224;2022-11-11T13:57:13;3.72;;;1.90;;
20711;SDS011;10517;50.742;4.224;2022-11-11T13:59:48;2.53;;;1.40;;
20711;SDS011;10517;50.742;4.224;2022-11-11T14:02:30;2.95;;;1.90;;
20711;SDS011;10517;50.742;4.224;2022-11-11T14:18:01;3.60;;;1.55;;
20711;SDS011;10517;50.742;4.224;2022-11-11T14:25:47;2.50;;;1.27;;
20711;SDS011;10517;50.742;4.224;2022-11-11T14:41:53;1.23;;;1.00;;
20711;SDS011;10517;50.742;4.224;2022-11-11T14:57:38;4.30;;;1.45;;
20711;SDS011;10517;50.742;4.224;2022-11-11T15:00:30;1.23;;;1.10;;
20711;SDS011;10517;50.742;4.224;2022-11-11T15:03:00;3.10;;;1.65;;
20711;SDS011;10517;50.742;4.224;2022-11-11T15:11:02;2.78;;;1.70;;
20711;SDS011;10517;50.742;4.224;2022-11-11T15:25:29;1.77;;;0.93;;
20711;SDS011;10517;50.742;4.224;2022-11-11T15:31:07;3.88;;;1.02;;
20711;SDS011;10517;50.742;4.224;2022-11-11T15:34:06;2.15;;;1.40;;
20711;SDS011;10517;50.742;4.224;2022-11-11T15:36:54;2.78;;;0.90;;
20711;SDS011;10517;50.742;4.224;2022-11-11T15:39:25;1.90;;;1.40;;
20711;SDS011;10517;50.742;4.224;2022-11-11T15:42:00;1.77;;;1.02;;
20711;SDS011;10517;50.742;4.224;2022-11-11T15:44:28;2.90;;;1.25;;
20711;SDS011;10517;50.742;4.224;2022-11-11T15:46:56;2.08;;;1.83;;
20711;SDS011;10517;50.742;4.224;2022-11-11T15:49:36;6.00;;;1.65;;
20711;SDS011;10517;50.742;4.224;2022-11-11T15:52:03;2.08;;;1.15;;
20711;SDS011;10517;50.742;4.224;2022-11-11T15:54:32;3.13;;;1.40;;
20711;SDS011;10517;50.742;4.224;2022-11-11T15:56:58;2.13;;;1.20;;
20711;SDS011;10517;50.742;4.224;2022-11-11T15:59:28;4.28;;;1.38;;
20711;SDS011;10517;50.742;4.224;2022-11-11T16:02:06;5.63;;;1.40;;
20711;SDS011;10517;50.742;4.224;2022-11-11T16:04:45;4.72;;;1.48;;
20711;SDS011;10517;50.742;4.224;2022-11-11T16:07:21;2.97;;;1.90;;
20711;SDS011;10517;50.742;4.224;2022-11-11T16:09:49;1.58;;;1.42;;
20711;SDS011;10517;50.742;4.224;2022-11-11T16:12:20;1.80;;;1.33;;
20711;SDS011;10517;50.742;4.224;2022-11-11T16:14:50;5.90;;;1.98;;
20711;SDS011;10517;50.742;4.224;2022-11-11T16:17:18;2.65;;;1.48;;
20711;SDS011;10517;50.742;4.224;2022-11-11T16:19:45;5.57;;;1.50;;
20711;SDS011;10517;50.742;4.224;2022-11-11T16:22:16;3.33;;;1.30;;
20711;SDS011;10517;50.742;4.224;2022-11-11T16:24:49;1.50;;;1.40;;
20711;SDS011;10517;50.742;4.224;2022-11-11T16:27:16;2.45;;;1.30;;
20711;SDS011;10517;50.742;4.224;2022-11-11T16:29:44;2.05;;;1.77;;
20711;SDS011;10517;50.742;4.224;2022-11-11T16:34:48;5.30;;;2.13;;
20711;SDS011;10517;50.742;4.224;2022-11-11T16:37:16;2.45;;;1.60;;
20711;SDS011;10517;50.742;4.224;2022-11-11T16:39:43;1.90;;;1.40;;
20711;SDS011;10517;50.742;4.224;2022-11-11T16:42:16;2.22;;;1.52;;
20711;SDS011;10517;50.742;4.224;2022-11-11T16:44:47;1.83;;;1.40;;
20711;SDS011;10517;50.742;4.224;2022-11-11T16:52:26;4.47;;;2.17;;
20711;SDS011;10517;50.742;4.224;2022-11-11T16:54:53;1.93;;;1.63;;
20711;SDS011;10517;50.742;4.224;2022-11-11T16:57:24;4.27;;;1.93;;
20711;SDS011;10517;50.742;4.224;2022-11-11T17:00:00;3.07;;;1.70;;
20711;SDS011;10517;50.742;4.224;2022-11-11T17:02:29;2.20;;;1.60;;
20711;SDS011;10517;50.742;4.224;2022-11-11T17:04:55;2.93;;;2.20;;
20711;SDS011;10517;50.742;4.224;2022-11-11T17:12:40;5.27;;;2.50;;
20711;SDS011;10517;50.742;4.224;2022-11-11T17:15:06;7.20;;;2.50;;
20711;SDS011;10517;50.742;4.224;2022-11-11T17:17:33;4.43;;;2.60;;
20711;SDS011;10517;50.742;4.224;2022-11-11T17:20:03;5.37;;;3.00;;
20711;SDS011;10517;50.742;4.224;2022-11-11T17:22:43;4.50;;;2.83;;
20711;SDS011;10517;50.742;4.224;2022-11-11T17:25:10;5.27;;;2.30;;
20711;SDS011;10517;50.742;4.224;2022-11-11T17:27:36;4.67;;;3.10;;
20711;SDS011;10517;50.742;4.224;2022-11-11T17:30:02;7.23;;;2.90;;
20711;SDS011;10517;50.742;4.224;2022-11-11T17:32:27;11.07;;;2.67;;
20711;SDS011;10517;50.742;4.224;2022-11-11T17:34:53;4.37;;;2.73;;
20711;SDS011;10517;50.742;4.224;2022-11-11T17:37:19;4.63;;;2.87;;
20711;SDS011;10517;50.742;4.224;2022-11-11T17:39:44;5.70;;;3.60;;
20711;SDS011;10517;50.742;4.224;2022-11-11T17:42:10;7.63;;;3.97;;
20711;SDS011;10517;50.742;4.224;2022-11-11T17:44:36;8.03;;;4.07;;
20711;SDS011;10517;50.742;4.224;2022-11-11T17:47:02;8.87;;;4.17;;
20711;SDS011;10517;50.742;4.224;2022-11-11T17:49:27;7.70;;;3.93;;
20711;SDS011;10517;50.742;4.224;2022-11-11T17:51:53;7.27;;;4.20;;
20711;SDS011;10517;50.742;4.224;2022-11-11T17:54:18;9.30;;;4.23;;
20711;SDS011;10517;50.742;4.224;2022-11-11T17:56:44;6.03;;;3.90;;
20711;SDS011;10517;50.742;4.224;2022-11-11T17:59:10;12.30;;;4.27;;
20711;SDS011;10517;50.742;4.224;2022-11-11T18:01:36;7.60;;;3.87;;
20711;SDS011;10517;50.742;4.224;2022-11-11T18:04:01;7.87;;;3.97;;
20711;SDS011;10517;50.742;4.224;2022-11-11T18:06:28;11.83;;;3.97;;
20711;SDS011;10517;50.742;4.224;2022-11-11T18:08:55;7.70;;;4.57;;
20711;SDS011;10517;50.742;4.224;2022-11-11T18:11:20;5.67;;;3.97;;